createdAt,value
2018-12-01T00:01:06.298Z,98247.87
2018-12-01T00:04:10.413Z,98254.92
2018-12-01T00:07:14.533Z,98254.31
2018-12-01T00:10:18.749Z,98253.99
2018-12-01T00:13:22.957Z,98254.72
2018-12-01T00:16:27.061Z,98250.62
2018-12-01T00:19:31.303Z,98255.34
2018-12-01T00:22:35.411Z,98253.78
2018-12-01T00:25:39.548Z,98249.63
2018-12-01T00:28:43.642Z,98244.39
2018-12-01T00:31:47.873Z,98247.58
2018-12-01T00:34:51.989Z,98243.76
2018-12-01T00:37:56.105Z,98249.03
2018-12-01T00:41:00.215Z,98247.39
2018-12-01T00:44:04.363Z,98258.20
2018-12-01T00:47:08.473Z,98260.23
2018-12-01T00:50:14.877Z,98259.67
2018-12-01T00:53:19.000Z,98260.73
2018-12-01T00:56:23.121Z,98268.70
2018-12-01T00:59:27.260Z,98272.13
2018-12-01T01:02:33.244Z,98279.80
2018-12-01T01:05:37.445Z,98278.09
2018-12-01T01:08:41.628Z,98278.17
2018-12-01T01:11:45.784Z,98277.27
2018-12-01T01:14:49.902Z,98285.06
2018-12-01T01:17:54.018Z,98283.03
2018-12-01T01:20:58.122Z,98285.70
2018-12-01T01:24:02.228Z,98288.72
2018-12-01T01:27:07.433Z,98280.49
2018-12-01T01:30:22.113Z,98287.50
2018-12-01T01:33:29.945Z,98283.77
2018-12-01T01:36:34.068Z,98285.35
2018-12-01T01:39:38.201Z,98291.92
2018-12-01T01:42:42.414Z,98302.56
2018-12-01T01:45:46.540Z,98308.19
2018-12-01T01:48:50.661Z,98304.55
2018-12-01T01:51:54.863Z,98312.34
2018-12-01T01:54:58.992Z,98301.17
2018-12-01T01:58:03.126Z,98298.57
2018-12-01T02:01:07.314Z,98297.78
2018-12-01T02:04:11.534Z,98302.20
2018-12-01T02:07:15.673Z,98306.20
2018-12-01T02:10:21.056Z,98304.67
2018-12-01T02:13:25.210Z,98303.84
2018-12-01T02:16:29.434Z,98301.25
2018-12-01T02:19:33.569Z,98297.77
2018-12-01T02:22:37.830Z,98294.79
2018-12-01T02:25:41.988Z,98295.86
2018-12-01T02:28:46.103Z,98302.45
2018-12-01T02:31:50.218Z,98308.91
2018-12-01T02:34:54.336Z,98308.80
2018-12-01T02:37:58.534Z,98303.20
2018-12-01T02:41:02.653Z,98304.21
2018-12-01T02:44:23.898Z,98305.81
2018-12-01T02:47:28.103Z,98300.09
2018-12-01T02:50:32.212Z,98305.45
2018-12-01T02:53:37.197Z,98308.19
2018-12-01T02:56:41.377Z,98307.97
2018-12-01T02:59:45.578Z,98306.39
2018-12-01T03:02:49.681Z,98307.06
2018-12-01T03:05:53.809Z,98305.30
2018-12-01T03:08:57.924Z,98297.70
2018-12-01T03:12:02.168Z,98298.05
2018-12-01T03:15:08.775Z,98303.36
2018-12-01T03:18:13.724Z,98306.02
2018-12-01T03:21:17.080Z,98310.06
2018-12-01T03:24:21.207Z,98316.27
2018-12-01T03:27:25.322Z,98313.95
2018-12-01T03:30:29.523Z,98314.86
2018-12-01T03:33:33.648Z,98311.69
2018-12-01T03:36:37.794Z,98313.81
2018-12-01T03:39:41.973Z,98311.22
2018-12-01T03:42:46.150Z,98310.22
2018-12-01T03:45:50.295Z,98307.16
2018-12-01T03:48:54.528Z,98309.16
2018-12-01T03:51:58.666Z,98312.66
2018-12-01T03:55:02.865Z,98313.86
2018-12-01T03:58:07.082Z,98303.36
2018-12-01T04:01:11.216Z,98302.41
2018-12-01T04:04:15.417Z,98295.78
2018-12-01T04:07:19.560Z,98306.12
2018-12-01T04:10:23.720Z,98307.34
2018-12-01T04:13:27.872Z,98307.34
2018-12-01T04:16:32.088Z,98310.25
2018-12-01T04:19:36.203Z,98306.02
2018-12-01T04:22:40.353Z,98309.90
2018-12-01T04:25:44.538Z,98311.77
2018-12-01T04:28:48.669Z,98308.81
2018-12-01T04:31:52.824Z,98310.45
2018-12-01T04:34:56.989Z,98313.30
2018-12-01T04:38:01.210Z,98317.36
2018-12-01T04:41:05.630Z,98316.27
2018-12-01T04:44:09.774Z,98314.84
2018-12-01T04:47:13.968Z,98303.39
2018-12-01T04:50:19.006Z,98307.56
2018-12-01T04:53:23.222Z,98311.18
2018-12-01T04:56:27.354Z,98314.78
2018-12-01T04:59:31.484Z,98312.66
2018-12-01T05:02:35.674Z,98319.82
2018-12-01T05:05:39.855Z,98316.34
2018-12-01T05:08:44.009Z,98324.20
2018-12-01T05:11:48.233Z,98331.12
2018-12-01T05:14:52.366Z,98326.26
2018-12-01T05:17:56.564Z,98331.30
2018-12-01T05:21:00.689Z,98327.44
2018-12-01T05:24:04.899Z,98329.28
2018-12-01T05:27:09.029Z,98335.05
2018-12-01T05:30:13.235Z,98330.03
2018-12-01T05:33:17.353Z,98332.78
2018-12-01T05:36:21.464Z,98332.33
2018-12-01T05:39:25.684Z,98323.36
2018-12-01T05:42:29.801Z,98335.88
2018-12-01T05:45:33.924Z,98342.93
2018-12-01T05:48:38.045Z,98339.77
2018-12-01T05:51:42.204Z,98349.48
2018-12-01T05:54:46.302Z,98351.05
2018-12-01T05:57:50.477Z,98345.94
2018-12-01T06:00:54.569Z,98348.73
2018-12-01T06:03:58.719Z,98352.30
2018-12-01T06:07:02.921Z,98356.55
2018-12-01T06:10:15.654Z,98354.09
2018-12-01T06:13:19.769Z,98358.75
2018-12-01T06:16:23.881Z,98361.16
2018-12-01T06:19:27.992Z,98361.63
2018-12-01T06:22:32.203Z,98370.70
2018-12-01T06:25:36.300Z,98374.88
2018-12-01T06:28:40.866Z,98372.46
2018-12-01T06:31:44.980Z,98377.11
2018-12-01T06:34:49.100Z,98382.88
2018-12-01T06:37:53.232Z,98388.42
2018-12-01T06:40:57.434Z,98390.02
2018-12-01T06:44:01.636Z,98393.19
2018-12-01T06:47:06.032Z,98389.44
2018-12-01T06:50:12.751Z,98396.22
2018-12-01T06:53:16.854Z,98398.88
2018-12-01T06:56:20.956Z,98393.56
2018-12-01T06:59:25.084Z,98402.70
2018-12-01T07:02:29.303Z,98393.84
2018-12-01T07:05:33.405Z,98407.07
2018-12-01T07:08:37.521Z,98409.41
2018-12-01T07:11:41.666Z,98416.95
2018-12-01T07:14:45.796Z,98413.50
2018-12-01T07:17:49.911Z,98422.63
2018-12-01T07:20:54.024Z,98421.81
2018-12-01T07:23:58.156Z,98422.24
2018-12-01T07:27:02.288Z,98416.51
2018-12-01T07:30:11.738Z,98415.27
2018-12-01T07:33:15.885Z,98410.97
2018-12-01T07:36:20.029Z,98399.62
2018-12-01T07:39:27.220Z,98396.77
2018-12-01T07:42:31.434Z,98397.62
2018-12-01T07:45:35.560Z,98402.22
2018-12-01T07:48:39.727Z,98412.66
2018-12-01T07:51:43.848Z,98416.25
2018-12-01T07:54:48.087Z,98418.92
2018-12-01T07:57:52.249Z,98423.53
2018-12-01T08:00:56.447Z,98422.58
2018-12-01T08:04:00.590Z,98417.88
2018-12-01T08:07:04.996Z,98422.63
2018-12-01T08:10:13.048Z,98421.27
2018-12-01T08:13:17.201Z,98422.59
2018-12-01T08:16:21.421Z,98421.59
2018-12-01T08:19:25.560Z,98415.39
2018-12-01T08:22:29.706Z,98417.84
2018-12-01T08:25:33.848Z,98411.02
2018-12-01T08:28:38.086Z,98414.45
2018-12-01T08:31:42.217Z,98405.78
2018-12-01T08:34:46.431Z,98405.84
2018-12-01T08:37:50.568Z,98407.44
2018-12-01T08:40:54.730Z,98405.84
2018-12-01T08:43:58.936Z,98409.92
2018-12-01T08:47:03.085Z,98394.88
2018-12-01T08:50:11.470Z,98386.95
2018-12-01T08:53:15.712Z,98388.52
2018-12-01T08:56:19.954Z,98386.69
2018-12-01T08:59:24.080Z,98388.13
2018-12-01T09:02:28.242Z,98391.03
2018-12-01T09:05:32.397Z,98383.61
2018-12-01T09:08:36.545Z,98387.30
2018-12-01T09:11:40.738Z,98389.37
2018-12-01T09:14:44.894Z,98393.87
2018-12-01T09:17:49.073Z,98395.73
2018-12-01T09:20:53.217Z,98390.92
2018-12-01T09:23:57.365Z,98392.73
2018-12-01T09:27:01.525Z,98387.38
2018-12-01T09:30:10.760Z,98391.98
2018-12-01T09:33:14.887Z,98382.44
2018-12-01T09:36:19.074Z,98372.55
2018-12-01T09:39:23.198Z,98379.06
2018-12-01T09:42:27.316Z,98369.92
2018-12-01T09:45:31.476Z,98375.45
2018-12-01T09:48:35.682Z,98374.66
2018-12-01T09:51:39.802Z,98369.55
2018-12-01T09:54:43.999Z,98371.44
2018-12-01T09:57:48.397Z,98372.45
2018-12-01T10:00:52.514Z,98371.93
2018-12-01T10:03:56.644Z,98366.83
2018-12-01T10:07:00.762Z,98377.58
2018-12-01T10:10:07.829Z,98363.45
2018-12-01T10:13:11.972Z,98370.72
2018-12-01T10:16:16.112Z,98363.28
2018-12-01T10:19:20.248Z,98362.83
2018-12-01T10:22:24.396Z,98353.19
2018-12-01T10:25:28.541Z,98350.05
2018-12-01T10:28:32.711Z,98344.56
2018-12-01T10:31:36.876Z,98344.59
2018-12-01T10:34:41.033Z,98340.10
2018-12-01T10:37:49.391Z,98329.27
2018-12-01T10:40:53.541Z,98316.55
2018-12-01T10:43:57.744Z,98317.02
2018-12-01T10:47:01.915Z,98318.31
2018-12-01T10:50:09.428Z,98324.08
2018-12-01T10:53:13.579Z,98326.08
2018-12-01T10:56:17.728Z,98334.25
2018-12-01T10:59:21.890Z,98326.22
2018-12-01T11:02:31.209Z,98316.75
2018-12-01T11:05:36.793Z,98313.64
2018-12-01T11:08:40.944Z,98301.70
2018-12-01T11:11:45.101Z,98303.45
2018-12-01T11:14:49.252Z,98304.84
2018-12-01T11:17:53.468Z,98298.27
2018-12-01T11:20:57.616Z,98287.53
2018-12-01T11:24:01.765Z,98293.17
2018-12-01T11:27:06.227Z,98288.68
2018-12-01T11:30:15.352Z,98279.34
2018-12-01T11:33:19.468Z,98272.68
2018-12-01T11:36:23.797Z,98273.95
2018-12-01T11:39:27.925Z,98268.02
2018-12-01T11:42:32.132Z,98262.06
2018-12-01T11:45:36.273Z,98256.40
2018-12-01T11:48:40.393Z,98248.65
2018-12-01T11:51:44.521Z,98243.66
2018-12-01T11:54:48.699Z,98240.19
2018-12-01T11:57:53.891Z,98243.23
2018-12-01T12:00:58.035Z,98239.41
2018-12-01T12:04:02.271Z,98238.14
2018-12-01T12:07:16.317Z,98236.05
2018-12-01T12:10:20.457Z,98235.09
2018-12-01T12:13:26.461Z,98229.30
2018-12-01T12:16:30.622Z,98231.64
2018-12-01T12:19:34.844Z,98235.18
2018-12-01T12:22:38.974Z,98235.84
2018-12-01T12:25:43.096Z,98224.80
2018-12-01T12:28:48.317Z,98225.58
2018-12-01T12:31:52.466Z,98232.41
2018-12-01T12:34:56.652Z,98228.98
2018-12-01T12:38:00.804Z,98226.61
2018-12-01T12:41:06.105Z,98225.04
2018-12-01T12:44:10.331Z,98218.11
2018-12-01T12:47:14.491Z,98218.70
2018-12-01T12:50:19.705Z,98222.80
2018-12-01T12:53:23.855Z,98219.86
2018-12-01T12:56:28.024Z,98219.82
2018-12-01T12:59:32.168Z,98212.60
2018-12-01T13:02:36.336Z,98207.33
2018-12-01T13:05:43.162Z,98200.52
2018-12-01T13:08:47.381Z,98198.05
2018-12-01T13:11:51.599Z,98197.81
2018-12-01T13:14:55.781Z,98189.01
2018-12-01T13:17:59.923Z,98182.33
2018-12-01T13:21:04.122Z,98177.89
2018-12-01T13:24:08.275Z,98177.28
2018-12-01T13:27:12.457Z,98185.98
2018-12-01T13:30:19.735Z,98194.31
2018-12-01T13:33:25.144Z,98179.09
2018-12-01T13:36:29.342Z,98171.59
2018-12-01T13:39:33.940Z,98182.76
2018-12-01T13:42:38.145Z,98174.77
2018-12-01T13:45:42.697Z,98176.79
2018-12-01T13:48:46.893Z,98172.19
2018-12-01T13:51:51.071Z,98171.56
2018-12-01T13:54:55.332Z,98186.02
2018-12-01T13:57:59.548Z,98175.31
2018-12-01T14:01:03.793Z,98177.45
2018-12-01T14:04:07.997Z,98176.97
2018-12-01T14:07:12.314Z,98185.61
2018-12-01T14:10:21.146Z,98176.17
2018-12-01T14:13:25.335Z,98190.27
2018-12-01T14:16:29.544Z,98196.48
2018-12-01T14:19:33.758Z,98195.95
2018-12-01T14:22:37.984Z,98187.58
2018-12-01T14:25:42.148Z,98187.91
2018-12-01T14:28:46.308Z,98190.38
2018-12-01T14:31:50.452Z,98182.37
2018-12-01T14:34:54.608Z,98184.27
2018-12-01T14:38:05.708Z,98187.77
2018-12-01T14:41:09.892Z,98184.30
2018-12-01T14:44:14.025Z,98187.23
2018-12-01T14:47:18.197Z,98186.98
2018-12-01T14:50:22.353Z,98189.67
2018-12-01T14:53:26.516Z,98186.48
2018-12-01T14:56:30.661Z,98176.56
2018-12-01T14:59:34.789Z,98175.76
2018-12-01T15:02:38.953Z,98170.42
2018-12-01T15:05:43.132Z,98164.53
2018-12-01T15:08:47.302Z,98161.84
2018-12-01T15:11:51.444Z,98159.42
2018-12-01T15:14:55.571Z,98166.95
2018-12-01T15:17:59.700Z,98169.91
2018-12-01T15:21:03.916Z,98168.31
2018-12-01T15:24:08.049Z,98165.38
2018-12-01T15:27:12.193Z,98159.77
2018-12-01T15:30:19.822Z,98161.38
2018-12-01T15:33:24.001Z,98162.74
2018-12-01T15:36:28.156Z,98170.25
2018-12-01T15:39:32.313Z,98168.08
2018-12-01T15:42:36.476Z,98165.94
2018-12-01T15:45:40.637Z,98164.58
2018-12-01T15:48:44.789Z,98172.08
2018-12-01T15:51:49.653Z,98163.52
2018-12-01T15:54:53.884Z,98165.40
2018-12-01T15:57:58.032Z,98162.73
2018-12-01T16:01:02.175Z,98164.59
2018-12-01T16:04:07.016Z,98164.06
2018-12-01T16:07:11.183Z,98156.55
2018-12-01T16:10:17.037Z,98160.83
2018-12-01T16:13:23.222Z,98165.14
2018-12-01T16:16:27.479Z,98157.37
2018-12-01T16:19:31.605Z,98157.11
2018-12-01T16:22:35.753Z,98156.85
2018-12-01T16:25:40.009Z,98150.67
2018-12-01T16:28:44.171Z,98145.59
2018-12-01T16:31:48.318Z,98147.75
2018-12-01T16:34:52.542Z,98147.47
2018-12-01T16:37:56.753Z,98140.50
2018-12-01T16:41:12.957Z,98140.25
2018-12-01T16:44:17.112Z,98135.69
2018-12-01T16:47:22.023Z,98142.91
2018-12-01T16:50:26.226Z,98139.16
2018-12-01T16:53:30.380Z,98135.41
2018-12-01T16:56:34.528Z,98137.53
2018-12-01T16:59:39.862Z,98139.16
2018-12-01T17:02:45.521Z,98136.75
2018-12-01T17:05:53.344Z,98139.39
2018-12-01T17:08:57.885Z,98135.40
2018-12-01T17:12:02.029Z,98132.43
2018-12-01T17:15:18.996Z,98132.95
2018-12-01T17:18:23.125Z,98128.13
2018-12-01T17:21:27.268Z,98126.02
2018-12-01T17:24:31.473Z,98116.89
2018-12-01T17:27:35.673Z,98113.42
2018-12-01T17:30:39.912Z,98108.09
2018-12-01T17:33:44.053Z,98108.34
2018-12-01T17:36:48.209Z,98105.92
2018-12-01T17:39:52.403Z,98107.55
2018-12-01T17:42:58.135Z,98099.52
2018-12-01T17:46:02.422Z,98097.65
2018-12-01T17:49:07.684Z,98094.42
2018-12-01T17:52:11.854Z,98101.63
2018-12-01T17:55:16.852Z,98093.88
2018-12-01T17:58:21.057Z,98095.76
2018-12-01T18:01:25.253Z,98093.06
2018-12-01T18:04:29.442Z,98092.26
2018-12-01T18:07:33.600Z,98086.92
2018-12-01T18:10:37.930Z,98089.34
2018-12-01T18:13:42.103Z,98087.97
2018-12-01T18:16:46.285Z,98085.03
2018-12-01T18:19:50.548Z,98076.98
2018-12-01T18:22:59.225Z,98081.52
2018-12-01T18:26:03.531Z,98079.91
2018-12-01T18:29:07.762Z,98083.64
2018-12-01T18:32:12.000Z,98082.31
2018-12-01T18:35:16.260Z,98082.89
2018-12-01T18:38:20.462Z,98082.34
2018-12-01T18:41:24.699Z,98078.30
2018-12-01T18:44:28.885Z,98075.91
2018-12-01T18:47:33.063Z,98069.74
2018-12-01T18:50:37.373Z,98060.13
2018-12-01T18:53:41.562Z,98048.91
2018-12-01T18:56:45.995Z,98052.91
2018-12-01T18:59:50.141Z,98053.16
2018-12-01T19:02:54.357Z,98045.70
2018-12-01T19:05:58.572Z,98045.45
2018-12-01T19:09:02.794Z,98039.55
2018-12-01T19:12:07.101Z,98036.34
2018-12-01T19:15:16.627Z,98037.92
2018-12-01T19:18:20.779Z,98033.95
2018-12-01T19:21:24.885Z,98033.70
2018-12-01T19:24:29.014Z,98034.78
2018-12-01T19:27:33.134Z,98031.28
2018-12-01T19:30:37.373Z,98027.81
2018-12-01T19:33:41.507Z,98026.48
2018-12-01T19:36:45.673Z,98031.81
2018-12-01T19:39:49.904Z,98024.59
2018-12-01T19:42:54.085Z,98021.14
2018-12-01T19:45:58.325Z,98017.41
2018-12-01T19:49:02.554Z,98008.01
2018-12-01T19:52:06.989Z,98001.31
2018-12-01T19:55:13.408Z,97993.04
2018-12-01T19:58:19.881Z,97982.09
2018-12-01T20:01:24.097Z,97979.13
2018-12-01T20:04:28.357Z,97986.88
2018-12-01T20:07:32.574Z,97979.67
2018-12-01T20:10:44.364Z,97982.08
2018-12-01T20:13:48.861Z,97989.02
2018-12-01T20:16:56.291Z,97994.36
2018-12-01T20:20:01.181Z,97989.00
2018-12-01T20:23:05.651Z,97994.91
2018-12-01T20:26:09.785Z,97995.69
2018-12-01T20:29:14.174Z,97996.77
2018-12-01T20:32:18.409Z,97989.83
2018-12-01T20:35:43.312Z,97999.98
2018-12-01T20:39:50.978Z,97991.41
2018-12-01T20:42:55.161Z,97983.92
2018-12-01T20:45:59.334Z,97983.11
2018-12-01T20:49:03.486Z,97972.70
2018-12-01T20:52:07.696Z,97969.48
2018-12-01T20:55:17.335Z,97965.76
2018-12-01T20:58:21.947Z,97961.22
2018-12-01T21:01:26.104Z,97959.62
2018-12-01T21:04:30.303Z,97963.89
2018-12-01T21:07:34.460Z,97963.08
2018-12-01T21:10:42.706Z,97957.75
2018-12-01T21:13:46.950Z,97947.61
2018-12-01T21:16:51.150Z,97938.53
2018-12-01T21:19:55.334Z,97940.66
2018-12-01T21:22:59.517Z,97937.73
2018-12-01T21:26:03.707Z,97933.97
2018-12-01T21:29:08.243Z,97928.11
2018-12-01T21:32:12.466Z,97922.22
2018-12-01T21:35:16.656Z,97927.84
2018-12-01T21:38:21.005Z,97913.37
2018-12-01T21:41:25.212Z,97910.98
2018-12-01T21:44:29.388Z,97902.70
2018-12-01T21:47:33.660Z,97902.69
2018-12-01T21:50:38.157Z,97891.22
2018-12-01T21:53:42.336Z,97884.25
2018-12-01T21:56:46.550Z,97890.39
2018-12-01T21:59:50.779Z,97883.44
2018-12-01T22:03:00.061Z,97882.64
2018-12-01T22:06:06.155Z,97882.13
2018-12-01T22:09:10.636Z,97881.30
2018-12-01T22:12:14.954Z,97885.86
2018-12-01T22:15:20.724Z,97881.03
2018-12-01T22:18:25.902Z,97872.72
2018-12-01T22:21:30.208Z,97869.00
2018-12-01T22:24:34.397Z,97873.56
2018-12-01T22:27:38.749Z,97866.08
2018-12-01T22:30:45.383Z,97866.08
2018-12-01T22:33:49.641Z,97864.72
2018-12-01T22:36:53.915Z,97862.30
2018-12-01T22:39:58.119Z,97858.28
2018-12-01T22:43:04.324Z,97854.28
2018-12-01T22:46:08.577Z,97845.20
2018-12-01T22:49:12.809Z,97846.27
2018-12-01T22:52:18.669Z,97844.90
2018-12-01T22:55:25.854Z,97840.08
2018-12-01T22:58:31.789Z,97834.73
2018-12-01T23:01:36.327Z,97828.32
2018-12-01T23:04:40.704Z,97820.57
2018-12-01T23:07:45.093Z,97825.39
2018-12-01T23:10:49.521Z,97827.00
2018-12-01T23:13:53.792Z,97811.53
2018-12-01T23:16:58.371Z,97806.99
2018-12-01T23:20:02.866Z,97808.33
2018-12-01T23:23:07.690Z,97799.78
2018-12-01T23:26:11.951Z,97791.76
2018-12-01T23:29:17.061Z,97789.36
2018-12-01T23:32:21.336Z,97781.09
2018-12-01T23:35:25.910Z,97778.14
2018-12-01T23:38:30.322Z,97771.98
2018-12-01T23:41:34.691Z,97775.72
2018-12-01T23:44:39.067Z,97773.30
2018-12-01T23:47:43.806Z,97766.64
2018-12-01T23:50:52.863Z,97772.23
2018-12-01T23:53:57.257Z,97765.03
2018-12-01T23:57:01.505Z,97754.02
